createdAt,value
2022-08-17T00:00:42.789Z,5.45
2022-08-17T00:03:35.274Z,5.30
2022-08-17T00:06:08.734Z,5.18
2022-08-17T00:08:47.280Z,4.82
2022-08-17T00:11:23.805Z,4.82
2022-08-17T00:14:02.404Z,4.82
2022-08-17T00:16:55.555Z,5.40
2022-08-17T00:19:32.236Z,5.20
2022-08-17T00:22:34.993Z,5.45
2022-08-17T00:24:59.225Z,4.45
2022-08-17T00:27:32.241Z,4.68
2022-08-17T00:29:59.123Z,4.40
2022-08-17T00:33:23.148Z,5.03
2022-08-17T00:35:21.079Z,4.80
2022-08-17T00:37:54.253Z,4.22
2022-08-17T00:40:21.465Z,4.40
2022-08-17T00:42:58.256Z,4.68
2022-08-17T00:45:31.284Z,4.00
2022-08-17T00:47:58.147Z,4.18
2022-08-17T00:50:31.275Z,3.90
2022-08-17T00:52:58.186Z,4.20
2022-08-17T00:55:25.103Z,4.13
2022-08-17T00:58:02.265Z,3.97
2022-08-17T01:00:41.355Z,4.43
2022-08-17T01:03:21.274Z,3.88
2022-08-17T01:05:56.257Z,4.03
2022-08-17T01:08:26.198Z,3.95
2022-08-17T01:11:02.362Z,4.20
2022-08-17T01:13:41.466Z,3.67
2022-08-17T01:16:26.141Z,4.18
2022-08-17T01:19:04.272Z,3.80
2022-08-17T01:22:03.333Z,4.10
2022-08-17T01:24:36.295Z,3.70
2022-08-17T01:27:03.411Z,4.40
2022-08-17T01:29:45.291Z,4.68
2022-08-17T01:32:12.438Z,3.63
2022-08-17T01:34:50.226Z,3.88
2022-08-17T01:37:18.109Z,4.45
2022-08-17T01:39:59.390Z,4.40
2022-08-17T01:43:08.307Z,4.20
2022-08-17T01:45:49.299Z,4.90
2022-08-17T01:48:35.517Z,4.03
2022-08-17T01:51:09.287Z,4.43
2022-08-17T01:53:46.333Z,5.28
2022-08-17T01:56:16.067Z,4.88
2022-08-17T01:58:43.096Z,4.88
2022-08-17T02:01:16.352Z,5.45
2022-08-17T02:03:53.486Z,4.57
2022-08-17T02:06:52.532Z,4.30
2022-08-17T02:09:25.653Z,5.03
2022-08-17T02:12:37.204Z,5.03
2022-08-17T02:14:48.167Z,5.55
2022-08-17T02:17:21.330Z,6.05
2022-08-17T02:19:48.206Z,6.28
2022-08-17T02:22:21.327Z,6.07
2022-08-17T02:24:59.536Z,5.55
2022-08-17T02:27:35.332Z,6.95
2022-08-17T02:30:05.189Z,6.47
2022-08-17T02:32:59.344Z,6.35
2022-08-17T02:35:31.220Z,5.63
2022-08-17T02:38:04.324Z,6.53
2022-08-17T02:40:35.703Z,6.00
2022-08-17T02:43:10.335Z,6.05
2022-08-17T02:45:37.281Z,6.68
2022-08-17T02:48:11.349Z,7.55
2022-08-17T02:50:38.217Z,7.60
2022-08-17T02:53:11.371Z,7.60
2022-08-17T02:55:39.975Z,7.03
2022-08-17T02:58:14.363Z,7.25
2022-08-17T03:00:43.609Z,6.63
2022-08-17T03:03:17.344Z,6.93
2022-08-17T03:05:45.062Z,7.13
2022-08-17T03:08:18.376Z,7.50
2022-08-17T03:10:45.524Z,6.97
2022-08-17T03:13:20.349Z,7.30
2022-08-17T03:15:47.626Z,6.95
2022-08-17T03:18:26.524Z,6.97
2022-08-17T03:21:05.389Z,6.75
2022-08-17T03:23:39.360Z,7.00
2022-08-17T03:26:15.664Z,7.00
2022-08-17T03:28:43.238Z,7.43
2022-08-17T03:31:16.396Z,7.13
2022-08-17T03:33:49.396Z,7.65
2022-08-17T03:36:16.281Z,7.15
2022-08-17T03:38:49.388Z,7.20
2022-08-17T03:41:17.969Z,6.70
2022-08-17T03:43:51.401Z,7.20
2022-08-17T03:46:27.985Z,7.55
2022-08-17T03:49:03.761Z,6.63
2022-08-17T03:51:37.396Z,7.63
2022-08-17T03:54:04.491Z,7.18
2022-08-17T03:56:41.432Z,7.03
2022-08-17T03:59:20.968Z,8.40
2022-08-17T04:01:59.433Z,7.43
2022-08-17T04:04:27.665Z,7.78
2022-08-17T04:07:01.422Z,8.27
2022-08-17T04:09:28.441Z,8.15
2022-08-17T04:11:55.397Z,8.38
2022-08-17T04:14:30.406Z,7.57
2022-08-17T04:16:57.264Z,7.68
2022-08-17T04:19:30.450Z,7.93
2022-08-17T04:22:04.415Z,8.63
2022-08-17T04:24:32.154Z,8.13
2022-08-17T04:27:05.425Z,7.22
2022-08-17T04:29:50.066Z,7.93
2022-08-17T04:33:10.466Z,7.50
2022-08-17T04:35:18.453Z,8.15
2022-08-17T04:37:45.627Z,8.30
2022-08-17T04:40:19.483Z,8.05
2022-08-17T04:42:46.425Z,6.13
2022-08-17T04:45:19.421Z,7.28
2022-08-17T04:47:46.440Z,7.03
2022-08-17T04:50:13.307Z,7.95
2022-08-17T04:52:53.447Z,6.70
2022-08-17T04:55:26.472Z,7.13
2022-08-17T04:57:53.393Z,7.20
2022-08-17T05:00:26.462Z,7.55
2022-08-17T05:02:54.511Z,7.50
2022-08-17T05:05:33.447Z,7.35
2022-08-17T05:08:01.723Z,7.55
2022-08-17T05:10:39.123Z,8.07
2022-08-17T05:13:24.510Z,7.18
2022-08-17T05:16:01.469Z,7.18
2022-08-17T05:18:29.060Z,7.05
2022-08-17T05:21:02.482Z,7.93
2022-08-17T05:23:42.544Z,7.55
2022-08-17T05:26:16.321Z,8.60
2022-08-17T05:29:03.488Z,7.13
2022-08-17T05:31:37.437Z,7.28
2022-08-17T05:34:04.315Z,6.63
2022-08-17T05:36:43.907Z,7.43
2022-08-17T05:39:19.475Z,6.03
2022-08-17T05:41:47.418Z,6.75
2022-08-17T05:44:21.470Z,6.10
2022-08-17T05:46:50.194Z,5.70
2022-08-17T05:49:28.484Z,6.72
2022-08-17T05:52:25.087Z,7.47
2022-08-17T05:55:27.489Z,7.22
2022-08-17T05:58:16.914Z,6.97
2022-08-17T06:01:02.556Z,7.38
2022-08-17T06:03:36.076Z,6.75
2022-08-17T06:06:33.493Z,7.53
2022-08-17T06:09:27.627Z,7.15
2022-08-17T06:12:23.140Z,5.72
2022-08-17T06:15:18.506Z,6.43
2022-08-17T06:17:45.428Z,6.95
2022-08-17T06:20:21.558Z,6.10
2022-08-17T06:22:58.482Z,6.78
2022-08-17T06:25:55.513Z,5.95
2022-08-17T06:28:42.513Z,6.38
2022-08-17T06:31:25.500Z,6.63
2022-08-17T06:33:58.529Z,7.30
2022-08-17T06:36:47.337Z,6.40
2022-08-17T06:39:44.541Z,5.97
2022-08-17T06:43:05.877Z,6.38
2022-08-17T06:45:45.565Z,6.70
2022-08-17T06:48:30.532Z,6.65
2022-08-17T06:51:14.483Z,6.60
2022-08-17T06:54:08.518Z,5.72
2022-08-17T06:56:53.884Z,6.03
2022-08-17T07:00:06.551Z,6.55
2022-08-17T07:03:04.701Z,7.47
2022-08-17T07:05:50.529Z,6.93
2022-08-17T07:09:43.528Z,6.07
2022-08-17T07:12:21.633Z,6.60
2022-08-17T07:15:08.550Z,5.53
2022-08-17T07:17:47.669Z,5.55
2022-08-17T07:20:26.575Z,5.50
2022-08-17T07:23:39.594Z,6.68
2022-08-17T07:26:07.404Z,5.25
2022-08-17T07:28:41.579Z,4.55
2022-08-17T07:31:14.614Z,5.50
2022-08-17T07:33:41.529Z,5.72
2022-08-17T07:36:32.565Z,5.38
2022-08-17T07:39:06.564Z,4.90
2022-08-17T07:41:57.585Z,4.47
2022-08-17T07:44:32.568Z,5.40
2022-08-17T07:46:59.471Z,6.32
2022-08-17T07:49:43.546Z,5.50
2022-08-17T07:52:50.672Z,5.53
2022-08-17T07:55:37.556Z,5.30
2022-08-17T07:58:04.419Z,5.70
2022-08-17T08:00:37.574Z,5.68
2022-08-17T08:03:26.049Z,5.88
2022-08-17T08:06:03.577Z,6.15
2022-08-17T08:08:40.770Z,5.80
2022-08-17T08:11:21.588Z,5.35
2022-08-17T08:13:48.535Z,6.32
2022-08-17T08:16:32.576Z,5.78
2022-08-17T08:19:07.591Z,6.45
2022-08-17T08:21:57.592Z,7.15
2022-08-17T08:25:15.447Z,6.40
2022-08-17T08:28:12.583Z,6.70
2022-08-17T08:30:45.454Z,6.90
2022-08-17T08:33:56.590Z,6.28
2022-08-17T08:37:11.926Z,6.25
2022-08-17T08:40:17.605Z,6.00
2022-08-17T08:43:11.684Z,5.45
2022-08-17T08:45:52.655Z,6.20
2022-08-17T08:48:53.750Z,6.50
2022-08-17T08:52:08.623Z,6.05
2022-08-17T08:54:41.074Z,6.35
2022-08-17T08:57:41.629Z,5.95
2022-08-17T09:00:25.182Z,5.65
2022-08-17T09:03:51.927Z,5.80
2022-08-17T09:06:41.633Z,6.18
2022-08-17T09:09:53.356Z,6.40
2022-08-17T09:12:45.635Z,7.20
2022-08-17T09:15:29.723Z,5.85
2022-08-17T09:19:01.044Z,6.22
2022-08-17T09:21:34.648Z,8.15
2022-08-17T09:24:39.623Z,5.97
2022-08-17T09:27:24.621Z,7.93
2022-08-17T09:29:58.638Z,7.30
2022-08-17T09:32:40.635Z,5.82
2022-08-17T09:35:39.468Z,6.18
2022-08-17T09:38:33.630Z,6.25
2022-08-17T09:41:50.646Z,6.55
2022-08-17T09:44:46.653Z,5.13
2022-08-17T09:47:46.693Z,5.95
2022-08-17T09:51:04.174Z,7.28
2022-08-17T09:53:24.652Z,7.20
2022-08-17T09:56:29.090Z,7.78
2022-08-17T09:59:26.654Z,6.53
2022-08-17T10:02:35.661Z,6.70
2022-08-17T10:05:44.727Z,6.78
2022-08-17T10:08:52.665Z,7.60
2022-08-17T10:12:03.685Z,5.95
2022-08-17T10:14:53.325Z,6.40
2022-08-17T10:17:47.742Z,5.72
2022-08-17T10:20:37.459Z,7.38
2022-08-17T10:23:24.685Z,6.38
2022-08-17T10:26:03.195Z,6.60
2022-08-17T10:28:50.695Z,6.82
2022-08-17T10:31:36.394Z,7.63
2022-08-17T10:34:50.730Z,7.65
2022-08-17T10:37:39.428Z,7.10
2022-08-17T10:40:40.693Z,8.75
2022-08-17T10:43:19.720Z,7.50
2022-08-17T10:46:27.817Z,7.22
2022-08-17T10:48:45.717Z,7.20
2022-08-17T10:51:42.751Z,6.72
2022-08-17T10:54:35.591Z,5.90
2022-08-17T10:57:08.752Z,8.93
2022-08-17T10:59:35.552Z,9.55
2022-08-17T11:02:20.720Z,9.55
2022-08-17T11:05:18.432Z,9.15
2022-08-17T11:08:20.751Z,6.78
2022-08-17T11:11:42.975Z,10.32
2022-08-17T11:14:43.727Z,11.45
2022-08-17T11:17:50.176Z,11.07
2022-08-17T11:20:29.723Z,8.70
2022-08-17T11:23:36.209Z,9.52
2022-08-17T11:26:09.740Z,8.80
2022-08-17T11:28:47.372Z,7.25
2022-08-17T11:31:44.712Z,8.52
2022-08-17T11:34:24.048Z,9.07
2022-08-17T11:37:21.719Z,8.90
2022-08-17T11:40:30.745Z,11.23
2022-08-17T11:44:01.890Z,9.68
2022-08-17T11:46:31.283Z,9.18
2022-08-17T11:49:20.753Z,9.07
2022-08-17T11:51:59.801Z,8.27
2022-08-17T11:54:37.766Z,7.85
2022-08-17T11:57:42.369Z,8.77
2022-08-17T12:00:55.746Z,10.15
2022-08-17T12:03:32.659Z,7.07
2022-08-17T12:06:33.771Z,7.97
2022-08-17T12:09:26.424Z,6.88
2022-08-17T12:12:13.864Z,8.45
2022-08-17T12:15:09.655Z,6.15
2022-08-17T12:17:42.925Z,7.60
2022-08-17T12:20:35.779Z,7.55
2022-08-17T12:23:24.367Z,6.80
2022-08-17T12:26:28.803Z,7.18
2022-08-17T12:29:09.372Z,8.65
2022-08-17T12:31:50.894Z,7.03
2022-08-17T12:34:45.800Z,7.88
2022-08-17T12:37:25.200Z,7.53
2022-08-17T12:40:12.806Z,8.70
2022-08-17T12:42:39.706Z,7.15
2022-08-17T12:45:35.779Z,8.43
2022-08-17T12:48:06.929Z,6.43
2022-08-17T12:50:45.816Z,6.63
2022-08-17T12:53:15.513Z,6.55
2022-08-17T12:55:48.783Z,7.60
2022-08-17T12:58:28.827Z,7.80
2022-08-17T13:01:07.502Z,7.63
2022-08-17T13:03:50.822Z,7.57
2022-08-17T13:06:33.857Z,6.70
2022-08-17T13:09:33.544Z,8.43
2022-08-17T13:12:09.832Z,7.45
2022-08-17T13:14:36.709Z,8.23
2022-08-17T13:17:03.739Z,7.35
2022-08-17T13:19:40.950Z,8.00
2022-08-17T13:22:11.202Z,8.20
2022-08-17T13:24:44.859Z,8.02
2022-08-17T13:27:12.598Z,8.02
2022-08-17T13:29:55.875Z,7.70
2022-08-17T13:32:45.008Z,8.43
2022-08-17T13:35:52.836Z,7.03
2022-08-17T13:38:50.854Z,8.45
2022-08-17T13:41:34.057Z,8.77
2022-08-17T13:44:07.856Z,9.32
2022-08-17T13:46:34.757Z,11.52
2022-08-17T13:49:12.861Z,9.57
2022-08-17T13:51:50.848Z,10.13
2022-08-17T13:54:37.866Z,8.77
2022-08-17T13:57:22.449Z,7.68
2022-08-17T13:59:56.857Z,8.50
2022-08-17T14:02:28.378Z,8.25
2022-08-17T14:05:01.884Z,7.57
2022-08-17T14:07:36.635Z,8.93
2022-08-17T14:10:17.890Z,8.13
2022-08-17T14:12:51.857Z,7.90
2022-08-17T14:15:21.675Z,10.00
2022-08-17T14:17:59.869Z,9.07
2022-08-17T14:20:26.784Z,8.75
2022-08-17T14:23:00.852Z,8.80
2022-08-17T14:25:28.813Z,6.35
2022-08-17T14:28:01.906Z,6.88
2022-08-17T14:30:29.691Z,8.10
2022-08-17T14:33:03.857Z,8.07
2022-08-17T14:35:30.734Z,8.07
2022-08-17T14:38:03.893Z,7.53
2022-08-17T14:40:30.819Z,9.02
2022-08-17T14:43:03.875Z,8.95
2022-08-17T14:45:32.797Z,7.95
2022-08-17T14:48:08.900Z,6.90
2022-08-17T14:50:43.881Z,9.70
2022-08-17T14:53:12.691Z,9.77
2022-08-17T14:55:46.873Z,8.27
2022-08-17T14:58:14.370Z,7.22
2022-08-17T15:00:47.921Z,8.52
2022-08-17T15:03:20.900Z,7.80
2022-08-17T15:05:53.876Z,7.68
2022-08-17T15:08:20.726Z,8.50
2022-08-17T15:10:47.640Z,8.10
2022-08-17T15:13:30.928Z,7.70
2022-08-17T15:16:04.903Z,7.30
2022-08-17T15:18:37.901Z,7.65
2022-08-17T15:21:11.898Z,8.32
2022-08-17T15:23:38.886Z,7.95
2022-08-17T15:26:12.907Z,8.10
2022-08-17T15:28:39.776Z,7.75
2022-08-17T15:31:06.658Z,8.50
2022-08-17T15:33:39.948Z,7.85
2022-08-17T15:36:07.575Z,10.13
2022-08-17T15:38:41.910Z,10.70
2022-08-17T15:41:19.915Z,6.05
2022-08-17T15:43:54.905Z,6.13
2022-08-17T15:46:24.164Z,5.47
2022-08-17T15:49:00.936Z,6.05
2022-08-17T15:51:33.733Z,6.03
2022-08-17T15:54:19.138Z,5.40
2022-08-17T15:56:49.950Z,5.80
2022-08-17T15:59:22.933Z,5.55
2022-08-17T16:03:13.484Z,5.97
2022-08-17T16:04:43.917Z,5.93
2022-08-17T16:07:11.154Z,6.40
2022-08-17T16:09:44.952Z,6.47
2022-08-17T16:12:17.955Z,6.72
2022-08-17T16:14:52.953Z,7.15
2022-08-17T16:17:39.289Z,6.90
2022-08-17T16:20:20.234Z,6.90
2022-08-17T16:22:48.268Z,6.05
2022-08-17T16:25:50.344Z,6.82
2022-08-17T16:28:16.100Z,5.68
2022-08-17T16:30:49.968Z,6.15
2022-08-17T16:33:22.980Z,5.65
2022-08-17T16:35:49.845Z,5.90
2022-08-17T16:38:22.990Z,5.68
2022-08-17T16:40:55.957Z,6.03
2022-08-17T16:43:22.850Z,5.47
2022-08-17T16:45:55.993Z,6.10
2022-08-17T16:48:28.985Z,5.45
2022-08-17T16:51:03.052Z,6.15
2022-08-17T16:53:37.975Z,6.03
2022-08-17T16:56:05.090Z,6.35
2022-08-17T16:58:38.013Z,6.07
2022-08-17T17:01:07.212Z,5.93
2022-08-17T17:03:40.960Z,5.82
2022-08-17T17:06:18.755Z,5.63
2022-08-17T17:09:01.975Z,5.65
2022-08-17T17:11:53.017Z,6.07
2022-08-17T17:14:38.991Z,5.85
2022-08-17T17:17:36.002Z,5.13
2022-08-17T17:20:17.027Z,4.93
2022-08-17T17:23:17.992Z,4.95
2022-08-17T17:25:58.501Z,5.32
2022-08-17T17:28:34.983Z,5.05
2022-08-17T17:31:19.703Z,5.75
2022-08-17T17:34:00.045Z,6.25
2022-08-17T17:36:57.870Z,5.43
2022-08-17T17:39:57.092Z,5.15
2022-08-17T17:42:26.014Z,4.82
2022-08-17T17:45:50.032Z,5.05
2022-08-17T17:48:16.917Z,5.10
2022-08-17T17:51:11.058Z,6.10
2022-08-17T17:54:09.717Z,5.25
2022-08-17T17:57:30.077Z,5.03
2022-08-17T18:00:29.043Z,4.93
2022-08-17T18:03:24.695Z,4.65
2022-08-17T18:06:09.743Z,5.05
2022-08-17T18:09:19.442Z,4.28
2022-08-17T18:12:09.043Z,4.80
2022-08-17T18:15:04.830Z,4.55
2022-08-17T18:17:38.047Z,4.25
2022-08-17T18:20:05.711Z,4.50
2022-08-17T18:22:39.066Z,4.57
2022-08-17T18:25:06.473Z,4.45
2022-08-17T18:27:42.062Z,4.40
2022-08-17T18:30:15.062Z,4.93
2022-08-17T18:32:50.050Z,4.75
2022-08-17T18:35:19.879Z,4.60
2022-08-17T18:38:24.051Z,4.63
2022-08-17T18:41:22.667Z,4.20
2022-08-17T18:44:43.092Z,4.38
2022-08-17T18:47:25.056Z,4.63
2022-08-17T18:50:02.087Z,4.47
2022-08-17T18:52:33.137Z,5.20
2022-08-17T18:55:29.084Z,4.90
2022-08-17T18:57:57.802Z,4.47
2022-08-17T19:00:43.042Z,4.53
2022-08-17T19:03:22.168Z,4.68
2022-08-17T19:05:54.832Z,4.90
2022-08-17T19:08:37.144Z,4.50
2022-08-17T19:11:39.094Z,4.80
2022-08-17T19:14:16.142Z,4.63
2022-08-17T19:16:52.292Z,4.97
2022-08-17T19:19:37.107Z,4.80
2022-08-17T19:22:31.261Z,4.50
2022-08-17T19:25:19.136Z,4.35
2022-08-17T19:28:21.900Z,5.03
2022-08-17T19:31:04.147Z,5.03
2022-08-17T19:33:31.185Z,5.22
2022-08-17T19:36:27.122Z,5.15
2022-08-17T19:39:26.492Z,5.30
2022-08-17T19:42:28.115Z,5.50
2022-08-17T19:45:38.127Z,5.22
2022-08-17T19:48:26.197Z,5.20
2022-08-17T19:50:59.122Z,4.82
2022-08-17T19:54:11.154Z,5.40
2022-08-17T19:56:58.131Z,5.22
2022-08-17T19:59:46.639Z,4.72
2022-08-17T20:02:32.192Z,5.43
2022-08-17T20:05:14.109Z,5.18
2022-08-17T20:08:14.128Z,4.75
2022-08-17T20:10:55.006Z,5.20
2022-08-17T20:13:49.160Z,5.25
2022-08-17T20:16:16.321Z,4.93
2022-08-17T20:19:05.171Z,4.60
2022-08-17T20:21:43.128Z,5.05
2022-08-17T20:24:22.299Z,5.32
2022-08-17T20:27:05.131Z,5.38
2022-08-17T20:29:40.742Z,5.07
2022-08-17T20:32:30.180Z,4.97
2022-08-17T20:35:14.958Z,5.32
2022-08-17T20:37:48.141Z,4.63
2022-08-17T20:40:21.523Z,4.90
2022-08-17T20:42:55.130Z,4.75
2022-08-17T20:45:22.061Z,4.80
2022-08-17T20:48:30.861Z,4.75
2022-08-17T20:50:57.443Z,5.40
2022-08-17T20:53:56.156Z,5.20
2022-08-17T20:56:44.883Z,5.38
2022-08-17T20:59:27.183Z,5.63
2022-08-17T21:02:30.159Z,5.07
2022-08-17T21:04:59.413Z,4.72
2022-08-17T21:07:29.394Z,5.13
2022-08-17T21:10:30.156Z,4.55
2022-08-17T21:13:09.328Z,4.72
2022-08-17T21:16:05.185Z,4.43
2022-08-17T21:18:56.285Z,4.65
2022-08-17T21:21:52.192Z,5.03
2022-08-17T21:24:44.188Z,4.15
2022-08-17T21:27:35.214Z,4.15
2022-08-17T21:30:10.067Z,3.83
2022-08-17T21:32:46.186Z,3.95
2022-08-17T21:35:26.192Z,4.22
2022-08-17T21:38:05.253Z,4.35
2022-08-17T21:40:39.197Z,4.05
2022-08-17T21:43:31.171Z,4.30
2022-08-17T21:46:13.208Z,4.70
2022-08-17T21:48:48.282Z,4.20
2022-08-17T21:51:27.238Z,4.72
2022-08-17T21:54:03.205Z,4.55
2022-08-17T21:56:42.189Z,4.53
2022-08-17T21:59:21.968Z,5.07
2022-08-17T22:02:08.215Z,4.97
2022-08-17T22:04:38.260Z,4.47
2022-08-17T22:07:16.205Z,5.20
2022-08-17T22:09:54.191Z,5.13
2022-08-17T22:12:29.193Z,4.90
2022-08-17T22:15:01.461Z,5.15
2022-08-17T22:17:38.226Z,4.57
2022-08-17T22:20:20.346Z,5.63
2022-08-17T22:22:57.212Z,5.30
2022-08-17T22:25:25.219Z,4.90
2022-08-17T22:28:13.261Z,5.32
2022-08-17T22:31:06.252Z,5.90
2022-08-17T22:33:39.218Z,5.40
2022-08-17T22:36:26.178Z,5.15
2022-08-17T22:39:06.240Z,5.75
2022-08-17T22:41:46.286Z,6.50
2022-08-17T22:44:43.224Z,6.07
2022-08-17T22:47:23.242Z,6.22
2022-08-17T22:50:01.281Z,6.20
2022-08-17T22:52:46.247Z,6.20
2022-08-17T22:55:16.547Z,6.45
2022-08-17T22:57:55.237Z,6.88
2022-08-17T23:00:51.508Z,5.60
2022-08-17T23:03:31.363Z,6.38
2022-08-17T23:06:06.709Z,5.88
2022-08-17T23:08:46.269Z,6.25
2022-08-17T23:11:13.144Z,5.88
2022-08-17T23:13:46.251Z,5.60
2022-08-17T23:16:19.251Z,5.97
2022-08-17T23:18:46.145Z,6.35
2022-08-17T23:21:19.270Z,5.63
2022-08-17T23:23:54.349Z,5.38
2022-08-17T23:26:42.248Z,5.47
2022-08-17T23:29:09.394Z,5.90
2022-08-17T23:31:43.264Z,5.85
2022-08-17T23:34:13.078Z,5.63
2022-08-17T23:36:46.266Z,6.43
2022-08-17T23:39:13.131Z,6.00
2022-08-17T23:41:47.279Z,5.88
2022-08-17T23:44:14.396Z,5.50
2022-08-17T23:46:48.277Z,5.53
2022-08-17T23:49:15.147Z,6.32
2022-08-17T23:51:48.279Z,5.47
2022-08-17T23:54:31.759Z,6.75
2022-08-17T23:57:05.307Z,6.28
2022-08-17T23:59:32.175Z,6.50
